| time (UTC) | temp C | wind direction | speed KPH | gust KPH | rain 1hr cm | rain 24hr cm | rain mn cm | humidity % | barometer mb |
| 20260906030108 | 22 | 0 | 0.0 | 4.8 | 0.25 | 0.84 | 0.84 | 92 | 1012.1 |
| 20260906025559 | 22 | 0 | 0.0 | 6.4 | 0.25 | 0.84 | 0.84 | 92 | 1012.0 |
| 20260906025059 | 22 | 179 | 1.6 | 6.4 | 0.25 | 0.84 | 0.84 | 92 | 1012.1 |
| 20260906024558 | 22 | 179 | 3.2 | 6.4 | 0.25 | 0.84 | 0.84 | 92 | 1012.0 |
| 20260906024103 | 22 | 167 | 1.6 | 6.4 | 0.25 | 0.84 | 0.84 | 92 | 1012.0 |
| 20260906023600 | 22 | 165 | 3.2 | 6.4 | 0.25 | 0.84 | 0.84 | 92 | 1011.7 |
| 20260906023130 | 22 | 123 | 0.0 | 8.0 | 0.23 | 0.81 | 0.81 | 91 | 1011.8 |
| 20260906022559 | 22 | 145 | 1.6 | 8.0 | 0.23 | 0.81 | 0.81 | 90 | 1012.0 |
| 20260906022101 | 22 | 65 | 1.6 | 8.0 | 0.23 | 0.81 | 0.81 | 90 | 1012.2 |
| 20260906021558 | 22 | 210 | 0.0 | 11.3 | 0.18 | 0.76 | 0.76 | 89 | 1012.1 |
| 20260906021100 | 22 | 360 | 6.4 | 11.3 | 0.05 | 0.64 | 0.64 | 88 | 1012.3 |
| 20260906020559 | 22 | 9 | 1.6 | 4.8 | 0.00 | 0.58 | 0.58 | 91 | 1012.1 |
| 20260906020108 | 22 | 53 | 1.6 | 3.2 | 0.00 | 0.58 | 0.58 | 92 | 1011.8 |
| 20260906015559 | 22 | 53 | 0.0 | 1.6 | 0.00 | 0.58 | 0.58 | 91 | 1011.5 |
| 20260906015059 | 22 | 0 | 0.0 | 3.2 | 0.00 | 0.58 | 0.58 | 91 | 1011.3 |
| 20260906014626 | 22 | 190 | 0.0 | 6.4 | 0.00 | 0.58 | 0.58 | 91 | 1011.3 |
| 20260906014059 | 22 | 190 | 1.6 | 6.4 | 0.00 | 0.58 | 0.58 | 89 | 1011.3 |
| 20260906013559 | 22 | 196 | 1.6 | 6.4 | 0.00 | 0.58 | 0.58 | 90 | 1011.3 |
| 20260906013101 | 22 | 148 | 0.0 | 12.9 | 0.00 | 0.58 | 0.58 | 92 | 1011.3 |
| 20260906012601 | 22 | 43 | 1.6 | 12.9 | 0.00 | 0.58 | 0.58 | 91 | 1011.4 |
| 20260906012059 | 22 | 198 | 0.0 | 11.3 | 0.00 | 0.58 | 0.58 | 92 | 1011.5 |
| 20260906011603 | 22 | 0 | 0.0 | 1.6 | 0.00 | 0.58 | 0.58 | 92 | 1011.4 |
| 20260906011100 | 22 | 0 | 0.0 | 3.2 | 0.00 | 0.58 | 0.58 | 91 | 1011.3 |
| 20260906010559 | 22 | 0 | 0.0 | 8.0 | 0.13 | 0.58 | 0.58 | 91 | 1011.2 |
| 20260906005558 | 22 | 177 | 1.6 | 8.0 | 0.58 | 0.58 | 0.58 | 90 | 1010.9 |
| 20260906005101 | 22 | 101 | 0.0 | 3.2 | 0.58 | 0.58 | 0.58 | 90 | 1010.9 |
| 20260906004613 | 22 | 0 | 0.0 | 3.2 | 0.58 | 0.58 | 0.58 | 88 | 1011.0 |
| 20260906004102 | 22 | 0 | 0.0 | 3.2 | 0.58 | 0.58 | 0.58 | 89 | 1011.1 |
| 20260906003559 | 22 | 101 | 0.0 | 3.2 | 0.58 | 0.58 | 0.58 | 87 | 1011.2 |
| 20260906003104 | 22 | 101 | 0.0 | 6.4 | 0.58 | 0.58 | 0.58 | 85 | 1011.2 |
| 20260906002559 | 23 | 0 | 3.2 | 11.3 | 0.58 | 0.58 | 0.58 | 84 | 1011.4 |
| 20260906002059 | 23 | 32 | 1.6 | 14.5 | 0.58 | 0.58 | 0.58 | 82 | 1011.5 |
| 20260906001603 | 23 | 25 | 4.8 | 14.5 | 0.58 | 0.58 | 0.58 | 81 | 1011.5 |
| 20260906001059 | 24 | 322 | 4.8 | 17.7 | 0.58 | 0.58 | 0.58 | 78 | 1011.6 |
| 20260906000559 | 25 | 107 | 4.8 | 66.0 | 0.46 | 0.46 | 0.46 | 73 | 1011.8 |
| 20260906000111 | 26 | 109 | 14.5 | 66.0 | 0.15 | 0.15 | 0.15 | 72 | 1011.6 |
| 20260905235559 | 28 | 67 | 14.5 | 32.2 | 0.00 | 0.00 | 0.00 | 67 | 1012.2 |
| 20260905235101 | 28 | 17 | 16.1 | 38.6 | 0.00 | 0.00 | 0.00 | 56 | 1012.9 |
| 20260905234605 | 29 | 27 | 14.5 | 38.6 | 0.00 | 0.00 | 0.00 | 59 | 1012.1 |
| 20260905234059 | 31 | 36 | 17.7 | 32.2 | 0.00 | 0.00 | 0.00 | 58 | 1011.8 |
| 20260905233602 | 32 | 47 | 14.5 | 24.1 | 0.00 | 0.00 | 0.00 | 58 | 1011.7 |
| 20260905233104 | 32 | 12 | 1.6 | 16.1 | 0.00 | 0.00 | 0.00 | 62 | 1011.3 |
| 20260905232559 | 32 | 159 | 4.8 | 16.1 | 0.00 | 0.00 | 0.00 | 61 | 1010.8 |
| 20260905232059 | 32 | 157 | 1.6 | 8.0 | 0.00 | 0.00 | 0.00 | 61 | 1010.9 |
| 20260905231603 | 32 | 0 | 0.0 | 3.2 | 0.00 | 0.00 | 0.00 | 63 | 1010.7 |
| 20260905231058 | 32 | 0 | 0.0 | 1.6 | 0.00 | 0.00 | 0.00 | 64 | 1010.6 |
| 20260905230600 | 32 | 0 | 0.0 | 1.6 | 0.00 | 0.00 | 0.00 | 59 | 1010.6 |
| 20260905230108 | 33 | 0 | 0.0 | 3.2 | 0.00 | 0.00 | 0.00 | 60 | 1010.6 |
| 20260905225559 | 33 | 132 | 0.0 | 9.7 | 0.00 | 0.00 | 0.00 | 60 | 1010.7 |
| 20260905225100 | 33 | 69 | 0.0 | 9.7 | 0.00 | 0.00 | 0.00 | 61 | 1010.9 |
| 20260905224608 | 33 | 0 | 0.0 | 3.2 | 0.00 | 0.00 | 0.00 | 60 | 1011.0 |
| 20260905224059 | 33 | 38 | 0.0 | 3.2 | 0.00 | 0.00 | 0.00 | 59 | 1010.9 |
| 20260905223559 | 34 | 0 | 0.0 | 3.2 | 0.00 | 0.00 | 0.00 | 57 | 1011.0 |
| 20260905223106 | 34 | 0 | 0.0 | 3.2 | 0.00 | 0.00 | 0.00 | 57 | 1011.0 |
| 20260905222600 | 34 | 153 | 0.0 | 4.8 | 0.00 | 0.00 | 0.00 | 56 | 1010.9 |
| 20260905222100 | 33 | 88 | 0.0 | 6.4 | 0.00 | 0.00 | 0.00 | 56 | 1011.0 |
| 20260905221559 | 33 | 0 | 1.6 | 6.4 | 0.00 | 0.00 | 0.00 | 55 | 1010.9 |
| 20260905221100 | 33 | 12 | 1.6 | 8.0 | 0.00 | 0.00 | 0.00 | 55 | 1010.9 |
| 20260905220559 | 33 | 66 | 0.0 | 8.0 | 0.00 | 0.00 | 0.00 | 53 | 1011.0 |
| 20260905220121 | 33 | 42 | 1.6 | 4.8 | 0.00 | 0.00 | 0.00 | 55 | 1011.0 |
| 20260905215600 | 34 | 0 | 1.6 | 6.4 | 0.00 | 0.00 | 0.00 | 55 | 1011.0 |
| 20260905215059 | 33 | 0 | 1.6 | 8.0 | 0.00 | 0.00 | 0.00 | 57 | 1010.9 |
| 20260905214605 | 33 | 43 | 3.2 | 8.0 | 0.00 | 0.00 | 0.00 | 56 | 1010.8 |
| 20260905214059 | 33 | 55 | 3.2 | 8.0 | 0.00 | 0.00 | 0.00 | 57 | 1010.8 |
| 20260905213600 | 33 | 40 | 1.6 | 4.8 | 0.00 | 0.00 | 0.00 | 59 | 1010.8 |
| 20260905213108 | 33 | 51 | 0.0 | 4.8 | 0.00 | 0.00 | 0.00 | 57 | 1010.8 |
| 20260905212559 | 33 | 0 | 0.0 | 9.7 | 0.00 | 0.00 | 0.00 | 57 | 1010.9 |
| 20260905212059 | 33 | 78 | 3.2 | 9.7 | 0.00 | 0.00 | 0.00 | 60 | 1010.8 |
| 20260905211604 | 33 | 59 | 3.2 | 11.3 | 0.00 | 0.00 | 0.00 | 59 | 1010.8 |
| 20260905211100 | 33 | 36 | 4.8 | 16.1 | 0.00 | 0.00 | 0.00 | 60 | 1010.9 |
| 20260905210600 | 33 | 26 | 6.4 | 16.1 | 0.00 | 0.00 | 0.00 | 58 | 1011.1 |
| 20260905210104 | 34 | 17 | 6.4 | 17.7 | 0.00 | 0.00 | 0.00 | 56 | 1011.3 |
| 20260905205600 | 34 | 44 | 6.4 | 17.7 | 0.00 | 0.00 | 0.00 | 56 | 1011.1 |
| 20260905205059 | 34 | 16 | 1.6 | 6.4 | 0.00 | 0.00 | 0.00 | 57 | 1011.2 |
| 20260905204605 | 33 | 81 | 0.0 | 6.4 | 0.00 | 0.00 | 0.00 | 55 | 1011.3 |
| 20260905204102 | 33 | 0 | 0.0 | 6.4 | 0.00 | 0.00 | 0.00 | 60 | 1011.4 |
| 20260905203600 | 34 | 24 | 0.0 | 4.8 | 0.00 | 0.00 | 0.00 | 57 | 1011.4 |
| 20260905203107 | 34 | 0 | 1.6 | 11.3 | 0.00 | 0.00 | 0.00 | 54 | 1011.6 |
| 20260905202600 | 34 | 0 | 3.2 | 11.3 | 0.00 | 0.00 | 0.00 | 55 | 1011.7 |
| 20260905202100 | 35 | 49 | 3.2 | 9.7 | 0.00 | 0.00 | 0.00 | 54 | 1011.7 |
| 20260905201603 | 35 | 37 | 0.0 | 6.4 | 0.00 | 0.00 | 0.00 | 53 | 1011.8 |
| 20260905201059 | 35 | 26 | 3.2 | 6.4 | 0.00 | 0.00 | 0.00 | 53 | 1011.8 |
| 20260905200559 | 35 | 0 | 0.0 | 6.4 | 0.00 | 0.00 | 0.00 | 55 | 1011.8 |
| 20260905200100 | 35 | 0 | 0.0 | 6.4 | 0.00 | 0.00 | 0.00 | 54 | 1011.8 |
| 20260905195600 | 35 | 341 | 0.0 | 4.8 | 0.00 | 0.00 | 0.00 | 53 | 1011.9 |
| 20260905195102 | 35 | 11 | 0.0 | 4.8 | 0.00 | 0.00 | 0.00 | 55 | 1012.0 |
| 20260905194607 | 36 | 57 | 1.6 | 4.8 | 0.00 | 0.00 | 0.00 | 51 | 1012.0 |
| 20260905194101 | 36 | 61 | 1.6 | 9.7 | 0.00 | 0.00 | 0.00 | 49 | 1012.1 |
| 20260905193559 | 36 | 243 | 1.6 | 9.7 | 0.00 | 0.00 | 0.00 | 50 | 1012.3 |
| 20260905193101 | 36 | 59 | 3.2 | 8.0 | 0.00 | 0.00 | 0.00 | 49 | 1012.3 |
| 20260905192600 | 36 | 5 | 1.6 | 4.8 | 0.00 | 0.00 | 0.00 | 51 | 1012.2 |
| 20260905192102 | 36 | 12 | 0.0 | 6.4 | 0.00 | 0.00 | 0.00 | 53 | 1012.2 |
| 20260905191603 | 36 | 341 | 1.6 | 8.0 | 0.00 | 0.00 | 0.00 | 49 | 1012.3 |
| 20260905191101 | 36 | 9 | 3.2 | 8.0 | 0.00 | 0.00 | 0.00 | 47 | 1012.5 |
| 20260905190601 | 36 | 0 | 1.6 | 6.4 | 0.00 | 0.00 | 0.00 | 50 | 1012.5 |
| 20260905190113 | 36 | 0 | 1.6 | 6.4 | 0.00 | 0.00 | 0.00 | 51 | 1012.4 |
| 20260905185601 | 36 | 304 | 0.0 | 8.0 | 0.00 | 0.00 | 0.00 | 49 | 1012.5 |
| 20260905185059 | 36 | 257 | 3.2 | 8.0 | 0.00 | 0.00 | 0.00 | 48 | 1012.7 |
| 20260905184604 | 36 | 360 | 1.6 | 8.0 | 0.00 | 0.00 | 0.00 | 48 | 1012.7 |
| 20260905184056 | 36 | 171 | 3.2 | 8.0 | 0.00 | 0.00 | 0.00 | 53 | 1012.7 |
| 20260905183603 | 36 | 245 | 3.2 | 6.4 | 0.00 | 0.00 | 0.00 | 52 | 1012.8 |
| 20260905183124 | 36 | 309 | 1.6 | 4.8 | 0.00 | 0.00 | 0.00 | 50 | 1012.9 |
| 20260905182559 | 36 | 302 | 1.6 | 4.8 | 0.00 | 0.00 | 0.00 | 50 | 1013.1 |
| 20260905182100 | 35 | 267 | 0.0 | 6.4 | 0.00 | 0.00 | 0.00 | 51 | 1013.2 |
| 20260905181606 | 35 | 306 | 0.0 | 6.4 | 0.00 | 0.00 | 0.00 | 53 | 1013.4 |
| 20260905181103 | 35 | 25 | 1.6 | 6.4 | 0.00 | 0.00 | 0.00 | 55 | 1013.4 |
| 20260905180600 | 35 | 314 | 1.6 | 6.4 | 0.00 | 0.00 | 0.00 | 55 | 1013.6 |
| 20260905175559 | 35 | 360 | 1.6 | 8.0 | 0.00 | 0.00 | 0.00 | 57 | 1013.6 |
| 20260905175059 | 35 | 238 | 0.0 | 8.0 | 0.00 | 0.00 | 0.00 | 57 | 1013.7 |
| 20260905174605 | 35 | 32 | 0.0 | 4.8 | 0.00 | 0.00 | 0.00 | 57 | 1013.7 |
| 20260905174100 | 35 | 338 | 0.0 | 4.8 | 0.00 | 0.00 | 0.00 | 56 | 1013.7 |
| 20260905173559 | 35 | 272 | 1.6 | 4.8 | 0.00 | 0.00 | 0.00 | 56 | 1013.7 |
| 20260905173103 | 35 | 312 | 1.6 | 4.8 | 0.00 | 0.00 | 0.00 | 59 | 1013.8 |
| 20260905172558 | 35 | 269 | 1.6 | 4.8 | 0.00 | 0.00 | 0.00 | 58 | 1013.8 |
| 20260905172100 | 35 | 167 | 1.6 | 4.8 | 0.00 | 0.00 | 0.00 | 59 | 1013.8 |
| 20260905171605 | 34 | 34 | 0.0 | 4.8 | 0.00 | 0.00 | 0.00 | 60 | 1014.0 |
| 20260905171059 | 34 | 5 | 0.0 | 4.8 | 0.00 | 0.00 | 0.00 | 58 | 1013.9 |
| 20260905170559 | 34 | 156 | 1.6 | 6.4 | 0.00 | 0.00 | 0.00 | 58 | 1013.9 |
| 20260905165602 | 33 | 348 | 1.6 | 6.4 | 0.00 | 0.00 | 0.00 | 62 | 1014.1 |
| 20260905165059 | 33 | 246 | 1.6 | 4.8 | 0.00 | 0.00 | 0.00 | 61 | 1014.0 |
| 20260905164615 | 33 | 5 | 1.6 | 4.8 | 0.00 | 0.00 | 0.00 | 62 | 1014.0 |
| 20260905164058 | 33 | 0 | 1.6 | 4.8 | 0.00 | 0.00 | 0.00 | 62 | 1014.2 |
| 20260905163600 | 33 | 313 | 0.0 | 4.8 | 0.00 | 0.00 | 0.00 | 63 | 1014.2 |
| 20260905163106 | 32 | 0 | 1.6 | 6.4 | 0.00 | 0.00 | 0.00 | 64 | 1014.3 |
| 20260905162600 | 32 | 0 | 1.6 | 6.4 | 0.00 | 0.00 | 0.00 | 63 | 1014.3 |
| 20260905162059 | 32 | 328 | 0.0 | 4.8 | 0.00 | 0.00 | 0.00 | 63 | 1014.4 |
| 20260905161613 | 32 | 0 | 0.0 | 4.8 | 0.00 | 0.00 | 0.00 | 65 | 1014.4 |
| 20260905161100 | 32 | 0 | 1.6 | 4.8 | 0.00 | 0.00 | 0.00 | 65 | 1014.4 |
| 20260905160559 | 32 | 217 | 0.0 | 4.8 | 0.00 | 0.00 | 0.00 | 66 | 1014.5 |
| 20260905160123 | 32 | 5 | 0.0 | 3.2 | 0.00 | 0.00 | 0.00 | 66 | 1014.6 |
| 20260905155559 | 32 | 5 | 1.6 | 4.8 | 0.00 | 0.00 | 0.00 | 66 | 1014.5 |
| 20260905155059 | 31 | 0 | 0.0 | 4.8 | 0.00 | 0.00 | 0.00 | 67 | 1014.6 |
| 20260905154607 | 31 | 0 | 0.0 | 3.2 | 0.00 | 0.00 | 0.00 | 69 | 1014.6 |
| 20260905154101 | 31 | 0 | 0.0 | 3.2 | 0.00 | 0.00 | 0.00 | 71 | 1014.7 |
| 20260905153558 | 31 | 0 | 0.0 | 3.2 | 0.00 | 0.00 | 0.00 | 71 | 1014.7 |
| 20260905153115 | 30 | 5 | 0.0 | 3.2 | 0.00 | 0.00 | 0.00 | 72 | 1014.7 |
| 20260905152600 | 30 | 0 | 0.0 | 3.2 | 0.00 | 0.00 | 0.00 | 72 | 1014.7 |
| 20260905152103 | 30 | 0 | 0.0 | 4.8 | 0.00 | 0.00 | 0.00 | 74 | 1014.7 |
| 20260905151609 | 30 | 0 | 0.0 | 4.8 | 0.00 | 0.00 | 0.00 | 75 | 1014.8 |
| 20260905151100 | 30 | 0 | 0.0 | 4.8 | 0.00 | 0.00 | 0.00 | 75 | 1014.8 |
| 20260905150559 | 29 | 0 | 0.0 | 6.4 | 0.00 | 0.00 | 0.00 | 76 | 1014.8 |
| 20260905150101 | 29 | 0 | 1.6 | 6.4 | 0.00 | 0.00 | 0.00 | 75 | 1014.8 |
| 20260905145556 | 28 | 156 | 1.6 | 4.8 | 0.00 | 0.00 | 0.00 | 77 | 1014.9 |
| 20260905145102 | 28 | 281 | 0.0 | 3.2 | 0.00 | 0.00 | 0.00 | 81 | 1014.9 |
| 20260905144602 | 27 | 0 | 0.0 | 1.6 | 0.00 | 0.00 | 0.00 | 82 | 1014.9 |
| 20260905144059 | 27 | 0 | 0.0 | 3.2 | 0.00 | 0.00 | 0.00 | 82 | 1014.9 |
| 20260905143559 | 27 | 0 | 0.0 | 3.2 | 0.00 | 0.00 | 0.00 | 82 | 1015.0 |
| 20260905143100 | 27 | 0 | 0.0 | 1.6 | 0.00 | 0.00 | 0.00 | 83 | 1015.0 |
| 20260905142559 | 27 | 0 | 0.0 | 1.6 | 0.00 | 0.00 | 0.00 | 82 | 1015.0 |
| 20260905142059 | 26 | 261 | 0.0 | 3.2 | 0.00 | 0.00 | 0.00 | 83 | 1014.9 |
| 20260905141559 | 26 | 261 | 0.0 | 3.2 | 0.00 | 0.00 | 0.00 | 82 | 1014.9 |
| 20260905141059 | 26 | 0 | 0.0 | 6.4 | 0.00 | 0.00 | 0.00 | 83 | 1014.9 |
| 20260905140559 | 26 | 0 | 1.6 | 6.4 | 0.00 | 0.00 | 0.00 | 83 | 1014.8 |
| 20260905140108 | 26 | 166 | 1.6 | 6.4 | 0.00 | 0.00 | 0.00 | 83 | 1014.9 |
| 20260905135559 | 26 | 165 | 1.6 | 4.8 | 0.00 | 0.00 | 0.00 | 83 | 1015.0 |
| 20260905135059 | 26 | 0 | 0.0 | 3.2 | 0.00 | 0.00 | 0.00 | 83 | 1015.0 |
| 20260905134601 | 26 | 0 | 0.0 | 4.8 | 0.00 | 0.00 | 0.00 | 83 | 1014.9 |
| 20260905134100 | 26 | 182 | 0.0 | 4.8 | 0.00 | 0.00 | 0.00 | 83 | 1014.9 |
| 20260905133600 | 26 | 195 | 0.0 | 4.8 | 0.00 | 0.00 | 0.00 | 83 | 1015.0 |
| 20260905133106 | 26 | 0 | 0.0 | 0.0 | 0.00 | 0.00 | 0.00 | 84 | 1015.0 |
| 20260905132559 | 26 | 0 | 0.0 | 0.0 | 0.00 | 0.00 | 0.00 | 84 | 1015.1 |
| 20260905132100 | 26 | 0 | 0.0 | 0.0 | 0.00 | 0.00 | 0.00 | 85 | 1015.0 |
| 20260905131610 | 26 | 0 | 0.0 | 0.0 | 0.00 | 0.00 | 0.00 | 85 | 1015.0 |
| 20260905131059 | 26 | 0 | 0.0 | 0.0 | 0.00 | 0.00 | 0.00 | 85 | 1015.1 |
| 20260905130559 | 25 | 0 | 0.0 | 0.0 | 0.00 | 0.00 | 0.00 | 86 | 1015.1 |
| 20260905130110 | 25 | 0 | 0.0 | 0.0 | 0.00 | 0.00 | 0.00 | 86 | 1015.0 |
| 20260905125559 | 25 | 0 | 0.0 | 0.0 | 0.00 | 0.00 | 0.00 | 86 | 1015.0 |
| 20260905125059 | 25 | 0 | 0.0 | 0.0 | 0.00 | 0.00 | 0.00 | 86 | 1015.1 |
| 20260905124603 | 25 | 0 | 0.0 | 0.0 | 0.00 | 0.00 | 0.00 | 87 | 1015.1 |
| 20260905124059 | 25 | 0 | 0.0 | 0.0 | 0.00 | 0.00 | 0.00 | 87 | 1015.1 |
| 20260905123559 | 25 | 0 | 0.0 | 0.0 | 0.00 | 0.00 | 0.00 | 88 | 1015.1 |
| 20260905123102 | 24 | 0 | 0.0 | 0.0 | 0.00 | 0.00 | 0.00 | 89 | 1015.0 |
| 20260905122600 | 24 | 0 | 0.0 | 0.0 | 0.00 | 0.00 | 0.00 | 90 | 1015.0 |
| 20260905122100 | 23 | 0 | 0.0 | 0.0 | 0.00 | 0.00 | 0.00 | 90 | 1015.0 |
| 20260905121602 | 23 | 0 | 0.0 | 0.0 | 0.00 | 0.00 | 0.00 | 90 | 1014.9 |
| 20260905121059 | 23 | 0 | 0.0 | 0.0 | 0.00 | 0.00 | 0.00 | 90 | 1014.9 |
| 20260905120600 | 23 | 0 | 0.0 | 0.0 | 0.00 | 0.00 | 0.00 | 90 | 1014.9 |
| 20260905120112 | 23 | 0 | 0.0 | 0.0 | 0.00 | 0.00 | 0.00 | 90 | 1014.8 |
| 20260905115601 | 23 | 0 | 0.0 | 0.0 | 0.00 | 0.00 | 0.00 | 91 | 1014.9 |
| 20260905115100 | 23 | 0 | 0.0 | 0.0 | 0.00 | 0.00 | 0.00 | 91 | 1014.7 |
| 20260905114606 | 23 | 0 | 0.0 | 0.0 | 0.00 | 0.00 | 0.00 | 91 | 1014.7 |
| 20260905114059 | 23 | 0 | 0.0 | 0.0 | 0.00 | 0.00 | 0.00 | 91 | 1014.7 |
| 20260905113559 | 23 | 0 | 0.0 | 0.0 | 0.00 | 0.00 | 0.00 | 91 | 1014.7 |
| 20260905113105 | 23 | 0 | 0.0 | 0.0 | 0.00 | 0.00 | 0.00 | 91 | 1014.6 |
| 20260905112604 | 23 | 0 | 0.0 | 0.0 | 0.00 | 0.00 | 0.00 | 90 | 1014.5 |
| 20260905112100 | 23 | 0 | 0.0 | 0.0 | 0.00 | 0.00 | 0.00 | 91 | 1014.4 |
| 20260905111612 | 23 | 0 | 0.0 | 0.0 | 0.00 | 0.00 | 0.00 | 90 | 1014.3 |
| 20260905111100 | 23 | 0 | 0.0 | 0.0 | 0.00 | 0.00 | 0.00 | 90 | 1014.1 |
| 20260905110606 | 23 | 0 | 0.0 | 0.0 | 0.00 | 0.00 | 0.00 | 90 | 1014.0 |
| 20260905110105 | 23 | 0 | 0.0 | 0.0 | 0.00 | 0.00 | 0.00 | 90 | 1013.9 |
| 20260905105600 | 23 | 0 | 0.0 | 0.0 | 0.00 | 0.00 | 0.00 | 90 | 1013.9 |
| 20260905105100 | 23 | 0 | 0.0 | 0.0 | 0.00 | 0.00 | 0.00 | 90 | 1013.8 |
| 20260905104558 | 23 | 0 | 0.0 | 0.0 | 0.00 | 0.00 | 0.00 | 90 | 1013.8 |
| 20260905104102 | 23 | 0 | 0.0 | 0.0 | 0.00 | 0.00 | 0.00 | 89 | 1013.8 |
| 20260905103601 | 23 | 0 | 0.0 | 0.0 | 0.00 | 0.00 | 0.00 | 89 | 1013.8 |
| 20260905103059 | 23 | 0 | 0.0 | 0.0 | 0.00 | 0.00 | 0.00 | 89 | 1013.8 |
| 20260905102559 | 23 | 0 | 0.0 | 0.0 | 0.00 | 0.00 | 0.00 | 89 | 1013.8 |
| 20260905102100 | 23 | 0 | 0.0 | 0.0 | 0.00 | 0.00 | 0.00 | 89 | 1013.8 |
| 20260905101606 | 23 | 0 | 0.0 | 0.0 | 0.00 | 0.00 | 0.00 | 89 | 1013.6 |
| 20260905101059 | 23 | 0 | 0.0 | 0.0 | 0.00 | 0.00 | 0.00 | 89 | 1013.8 |
| 20260905100559 | 23 | 0 | 0.0 | 0.0 | 0.00 | 0.00 | 0.00 | 89 | 1013.8 |
| 20260905100100 | 23 | 0 | 0.0 | 0.0 | 0.00 | 0.00 | 0.00 | 89 | 1013.8 |
| 20260905095600 | 23 | 0 | 0.0 | 0.0 | 0.00 | 0.00 | 0.00 | 89 | 1013.7 |
| 20260905095059 | 23 | 0 | 0.0 | 0.0 | 0.00 | 0.00 | 0.00 | 89 | 1013.7 |
| 20260905094602 | 23 | 0 | 0.0 | 0.0 | 0.00 | 0.00 | 0.00 | 89 | 1013.7 |
| 20260905094103 | 23 | 0 | 0.0 | 0.0 | 0.00 | 0.00 | 0.00 | 89 | 1013.7 |
| 20260905093556 | 23 | 0 | 0.0 | 0.0 | 0.00 | 0.00 | 0.00 | 89 | 1013.7 |
| 20260905093102 | 23 | 0 | 0.0 | 0.0 | 0.00 | 0.00 | 0.00 | 89 | 1013.6 |
| 20260905092559 | 23 | 0 | 0.0 | 0.0 | 0.00 | 0.00 | 0.00 | 89 | 1013.5 |
| 20260905092059 | 23 | 0 | 0.0 | 0.0 | 0.00 | 0.00 | 0.00 | 89 | 1013.6 |
| 20260905091606 | 23 | 0 | 0.0 | 0.0 | 0.00 | 0.00 | 0.00 | 89 | 1013.6 |
| 20260905091059 | 23 | 0 | 0.0 | 0.0 | 0.00 | 0.00 | 0.00 | 89 | 1013.7 |
| 20260905090559 | 23 | 0 | 0.0 | 0.0 | 0.00 | 0.00 | 0.00 | 88 | 1013.7 |
| 20260905085600 | 23 | 0 | 0.0 | 0.0 | 0.00 | 0.00 | 0.00 | 88 | 1013.6 |
| 20260905085059 | 23 | 0 | 0.0 | 0.0 | 0.00 | 0.00 | 0.00 | 88 | 1013.7 |
| 20260905084620 | 23 | 0 | 0.0 | 0.0 | 0.00 | 0.00 | 0.00 | 88 | 1013.7 |
| 20260905084102 | 23 | 0 | 0.0 | 0.0 | 0.00 | 0.00 | 0.00 | 88 | 1013.7 |
| 20260905083558 | 23 | 0 | 0.0 | 0.0 | 0.00 | 0.00 | 0.00 | 88 | 1013.8 |
| 20260905083100 | 23 | 0 | 0.0 | 0.0 | 0.00 | 0.00 | 0.00 | 88 | 1013.7 |
| 20260905082600 | 23 | 0 | 0.0 | 0.0 | 0.00 | 0.00 | 0.00 | 87 | 1013.8 |
| 20260905082101 | 23 | 0 | 0.0 | 0.0 | 0.00 | 0.00 | 0.00 | 87 | 1013.7 |
| 20260905081603 | 23 | 0 | 0.0 | 0.0 | 0.00 | 0.00 | 0.00 | 87 | 1013.8 |
| 20260905081102 | 23 | 0 | 0.0 | 0.0 | 0.00 | 0.00 | 0.00 | 87 | 1013.8 |
| 20260905080600 | 23 | 0 | 0.0 | 0.0 | 0.00 | 0.00 | 0.00 | 87 | 1013.7 |
| 20260905080059 | 24 | 0 | 0.0 | 0.0 | 0.00 | 0.00 | 0.00 | 87 | 1013.8 |
| 20260905075604 | 24 | 0 | 0.0 | 3.2 | 0.00 | 0.00 | 0.00 | 87 | 1013.7 |
| 20260905075103 | 24 | 0 | 0.0 | 3.2 | 0.00 | 0.00 | 0.00 | 87 | 1013.6 |
| 20260905074605 | 24 | 0 | 0.0 | 3.2 | 0.00 | 0.00 | 0.00 | 87 | 1013.6 |
| 20260905074100 | 24 | 0 | 0.0 | 3.2 | 0.00 | 0.00 | 0.00 | 87 | 1013.7 |
| 20260905073559 | 24 | 0 | 0.0 | 3.2 | 0.00 | 0.00 | 0.00 | 87 | 1013.7 |
| 20260905073106 | 24 | 125 | 0.0 | 3.2 | 0.00 | 0.00 | 0.00 | 87 | 1013.8 |
| 20260905072601 | 24 | 0 | 0.0 | 1.6 | 0.00 | 0.00 | 0.00 | 87 | 1013.8 |
| 20260905072100 | 24 | 0 | 0.0 | 1.6 | 0.00 | 0.00 | 0.00 | 87 | 1013.8 |
| 20260905071600 | 24 | 0 | 0.0 | 0.0 | 0.00 | 0.00 | 0.00 | 86 | 1013.8 |
| 20260905071103 | 24 | 0 | 0.0 | 0.0 | 0.00 | 0.00 | 0.00 | 86 | 1013.8 |
| 20260905070559 | 24 | 0 | 0.0 | 0.0 | 0.00 | 0.00 | 0.00 | 86 | 1013.8 |
| 20260905070105 | 24 | 0 | 0.0 | 0.0 | 0.00 | 0.00 | 0.00 | 86 | 1013.9 |
| 20260905065602 | 25 | 0 | 0.0 | 0.0 | 0.00 | 0.00 | 0.00 | 85 | 1013.8 |
| 20260905065059 | 25 | 0 | 0.0 | 0.0 | 0.00 | 0.00 | 0.00 | 86 | 1013.9 |
| 20260905064602 | 25 | 0 | 0.0 | 0.0 | 0.00 | 0.00 | 0.00 | 85 | 1013.9 |
| 20260905064103 | 25 | 0 | 0.0 | 0.0 | 0.00 | 0.00 | 0.00 | 85 | 1014.0 |
| 20260905063601 | 25 | 0 | 0.0 | 0.0 | 0.00 | 0.00 | 0.00 | 85 | 1014.0 |
| 20260905063111 | 25 | 0 | 0.0 | 0.0 | 0.00 | 0.00 | 0.00 | 85 | 1014.1 |
| 20260905062602 | 25 | 0 | 0.0 | 1.6 | 0.00 | 0.00 | 0.00 | 85 | 1014.0 |
| 20260905062104 | 25 | 0 | 0.0 | 1.6 | 0.00 | 0.00 | 0.00 | 85 | 1014.0 |
| 20260905061610 | 25 | 0 | 0.0 | 0.0 | 0.00 | 0.00 | 0.00 | 85 | 1014.0 |
| 20260905061059 | 25 | 0 | 0.0 | 0.0 | 0.00 | 0.00 | 0.00 | 85 | 1014.1 |
| 20260905060603 | 25 | 0 | 0.0 | 1.6 | 0.00 | 0.00 | 0.00 | 85 | 1014.2 |
| 20260905060106 | 25 | 0 | 0.0 | 3.2 | 0.00 | 0.00 | 0.00 | 84 | 1014.1 |
| 20260905055559 | 25 | 0 | 0.0 | 3.2 | 0.00 | 0.00 | 0.00 | 84 | 1014.1 |
| 20260905055102 | 25 | 0 | 0.0 | 6.4 | 0.00 | 0.00 | 0.00 | 84 | 1014.0 |
| 20260905054603 | 25 | 0 | 1.6 | 6.4 | 0.00 | 0.00 | 0.00 | 84 | 1014.0 |
| 20260905054059 | 25 | 177 | 0.0 | 3.2 | 0.00 | 0.00 | 0.00 | 84 | 1014.0 |
| 20260905053559 | 25 | 0 | 0.0 | 1.6 | 0.00 | 0.00 | 0.00 | 83 | 1014.1 |
| 20260905053141 | 25 | 0 | 0.0 | 1.6 | 0.00 | 0.00 | 0.00 | 83 | 1014.0 |
| 20260905052603 | 25 | 0 | 0.0 | 1.6 | 0.00 | 0.00 | 0.00 | 83 | 1014.0 |
| 20260905052059 | 25 | 0 | 0.0 | 0.0 | 0.00 | 0.00 | 0.00 | 82 | 1013.9 |
| 20260905051607 | 25 | 0 | 0.0 | 1.6 | 0.00 | 0.00 | 0.00 | 83 | 1014.0 |
| 20260905051059 | 25 | 0 | 0.0 | 1.6 | 0.00 | 0.00 | 0.00 | 83 | 1013.9 |
| 20260905050600 | 25 | 0 | 0.0 | 1.6 | 0.00 | 0.00 | 0.00 | 82 | 1013.9 |
| 20260905045603 | 26 | 0 | 0.0 | 3.2 | 0.00 | 0.00 | 0.00 | 81 | 1013.8 |
| 20260905045059 | 26 | 177 | 0.0 | 4.8 | 0.00 | 0.00 | 0.00 | 81 | 1013.9 |
| 20260905044603 | 26 | 0 | 1.6 | 6.4 | 0.00 | 0.00 | 0.00 | 81 | 1013.9 |
| 20260905044059 | 26 | 177 | 3.2 | 6.4 | 0.00 | 0.00 | 0.00 | 81 | 1014.0 |
| 20260905043602 | 26 | 133 | 1.6 | 3.2 | 0.00 | 0.00 | 0.00 | 80 | 1014.1 |
| 20260905043103 | 26 | 0 | 0.0 | 0.0 | 0.00 | 0.00 | 0.00 | 80 | 1014.2 |
| 20260905042559 | 26 | 0 | 0.0 | 0.0 | 0.00 | 0.00 | 0.00 | 79 | 1014.2 |
| 20260905042100 | 26 | 0 | 0.0 | 0.0 | 0.00 | 0.00 | 0.00 | 79 | 1014.2 |
| 20260905041615 | 26 | 0 | 0.0 | 0.0 | 0.00 | 0.00 | 0.00 | 79 | 1014.2 |
| 20260905041059 | 26 | 0 | 0.0 | 0.0 | 0.00 | 0.00 | 0.00 | 78 | 1014.3 |
| 20260905040602 | 27 | 0 | 0.0 | 0.0 | 0.00 | 0.00 | 0.00 | 78 | 1014.3 |
| 20260905040105 | 27 | 0 | 0.0 | 1.6 | 0.00 | 0.00 | 0.00 | 77 | 1014.4 |
| 20260905035559 | 27 | 0 | 0.0 | 4.8 | 0.00 | 0.00 | 0.00 | 77 | 1014.4 |
| 20260905035059 | 27 | 0 | 1.6 | 4.8 | 0.00 | 0.00 | 0.00 | 76 | 1014.5 |
| 20260905034604 | 27 | 133 | 0.0 | 3.2 | 0.00 | 0.00 | 0.00 | 76 | 1014.5 |
| 20260905034059 | 27 | 133 | 0.0 | 1.6 | 0.00 | 0.00 | 0.00 | 76 | 1014.5 |
| 20260905033602 | 27 | 0 | 0.0 | 3.2 | 0.00 | 0.00 | 0.00 | 76 | 1014.7 |
| 20260905033106 | 27 | 0 | 0.0 | 3.2 | 0.00 | 0.00 | 0.00 | 76 | 1014.7 |
| 20260905032600 | 27 | 46 | 0.0 | 1.6 | 0.00 | 0.00 | 0.00 | 76 | 1014.7 |
| 20260905032104 | 27 | 0 | 0.0 | 3.2 | 0.00 | 0.00 | 0.00 | 75 | 1014.8 |
| 20260905031600 | 27 | 46 | 0.0 | 4.8 | 0.00 | 0.00 | 0.00 | 75 | 1014.7 |
| 20260905031059 | 27 | 0 | 1.6 | 4.8 | 0.00 | 0.00 | 0.00 | 74 | 1014.7 |
| 20260905030559 | 27 | 213 | 1.6 | 3.2 | 0.00 | 0.00 | 0.00 | 74 | 1014.6 |